createdAt,value
2022-12-12T00:00:30.549Z,26.10
2022-12-12T00:02:59.978Z,28.37
2022-12-12T00:05:36.172Z,28.87
2022-12-12T00:08:05.341Z,27.13
2022-12-12T00:10:34.773Z,28.20
2022-12-12T00:13:05.431Z,29.33
2022-12-12T00:15:34.376Z,29.57
2022-12-12T00:18:03.229Z,27.93
2022-12-12T00:20:32.341Z,28.43
2022-12-12T00:23:01.056Z,28.10
2022-12-12T00:25:30.132Z,27.10
2022-12-12T00:28:00.091Z,28.87
2022-12-12T00:30:30.308Z,27.37
2022-12-12T00:32:59.192Z,28.47
2022-12-12T00:35:28.994Z,31.07
2022-12-12T00:37:57.915Z,30.50
2022-12-12T00:40:26.720Z,31.60
2022-12-12T00:42:55.538Z,31.40
2022-12-12T00:45:24.416Z,29.53
2022-12-12T00:47:54.679Z,28.17
2022-12-12T00:50:23.566Z,29.10
2022-12-12T00:52:52.486Z,27.33
2022-12-12T00:55:21.651Z,30.07
2022-12-12T00:57:50.426Z,28.13
2022-12-12T01:00:20.512Z,29.73
2022-12-12T01:02:50.157Z,26.60
2022-12-12T01:05:20.624Z,27.77
2022-12-12T01:07:59.891Z,28.73
2022-12-12T01:10:28.892Z,28.63
2022-12-12T01:12:57.712Z,28.80
2022-12-12T01:15:26.970Z,30.00
2022-12-12T01:17:55.760Z,28.70
2022-12-12T01:20:28.893Z,30.97
2022-12-12T01:22:57.933Z,25.50
2022-12-12T01:25:26.955Z,28.57
2022-12-12T01:27:55.706Z,29.77
2022-12-12T01:30:25.020Z,32.67
2022-12-12T01:32:55.164Z,30.07
2022-12-12T01:35:26.427Z,31.73
2022-12-12T01:37:55.419Z,30.30
2022-12-12T01:40:28.068Z,30.63
2022-12-12T01:42:57.398Z,26.17
2022-12-12T01:46:33.948Z,26.87
2022-12-12T01:49:13.039Z,27.80
2022-12-12T01:51:45.266Z,29.93
2022-12-12T01:54:21.083Z,29.03
2022-12-12T01:56:52.702Z,26.63
2022-12-12T01:59:25.834Z,29.20
2022-12-12T02:01:56.088Z,30.40
2022-12-12T02:04:25.402Z,28.30
2022-12-12T02:06:57.487Z,29.53
2022-12-12T02:09:27.157Z,28.07
2022-12-12T02:11:58.526Z,29.80
2022-12-12T02:14:33.683Z,29.63
2022-12-12T02:17:30.669Z,29.73
2022-12-12T02:20:42.728Z,31.10
2022-12-12T02:23:54.742Z,28.43
2022-12-12T02:27:04.126Z,28.03
2022-12-12T02:30:22.595Z,30.13
2022-12-12T02:33:28.149Z,32.67
2022-12-12T02:36:15.015Z,29.83
2022-12-12T02:38:57.573Z,32.93
2022-12-12T02:41:36.129Z,32.87
2022-12-12T02:44:27.696Z,31.43
2022-12-12T02:47:09.259Z,30.93
2022-12-12T02:49:47.567Z,29.43
2022-12-12T02:52:18.805Z,31.70
2022-12-12T02:59:27.136Z,31.67
2022-12-12T03:03:14.395Z,30.83
2022-12-12T03:06:22.081Z,32.83
2022-12-12T03:09:06.232Z,31.73
2022-12-12T03:11:51.938Z,30.93
2022-12-12T03:14:29.140Z,32.07
2022-12-12T03:17:10.969Z,35.20
2022-12-12T03:19:47.337Z,36.43
2022-12-12T03:22:28.737Z,31.13
2022-12-12T03:25:05.911Z,31.73
2022-12-12T03:27:42.227Z,27.30
2022-12-12T03:30:16.902Z,32.67
2022-12-12T03:33:32.940Z,28.80
2022-12-12T03:36:11.541Z,29.73
2022-12-12T03:38:57.017Z,30.00
2022-12-12T03:41:33.047Z,28.80
2022-12-12T03:44:30.287Z,27.63
2022-12-12T03:47:07.319Z,29.77
2022-12-12T03:49:45.990Z,28.33
2022-12-12T03:52:27.642Z,30.73
2022-12-12T03:55:05.713Z,27.60
2022-12-12T03:57:42.722Z,27.30
2022-12-12T04:00:15.342Z,27.57
2022-12-12T04:02:56.330Z,27.73
2022-12-12T04:05:33.973Z,25.47
2022-12-12T04:08:09.187Z,26.73
2022-12-12T04:11:03.938Z,26.17
2022-12-12T04:13:40.499Z,25.40
2022-12-12T04:16:13.501Z,28.20
2022-12-12T04:18:53.899Z,24.70
2022-12-12T04:21:52.996Z,22.97
2022-12-12T04:24:35.313Z,26.87
2022-12-12T04:27:12.505Z,24.37
2022-12-12T04:29:49.665Z,24.40
2022-12-12T04:32:26.749Z,24.03
2022-12-12T04:35:01.111Z,22.00
2022-12-12T04:37:36.183Z,23.57
2022-12-12T04:40:10.750Z,22.03
2022-12-12T04:42:48.423Z,22.63
2022-12-12T04:45:22.915Z,23.87
2022-12-12T04:47:55.648Z,23.23
2022-12-12T04:50:31.244Z,20.57
2022-12-12T04:53:03.302Z,22.90
2022-12-12T04:55:37.203Z,22.07
2022-12-12T04:58:08.634Z,23.57
2022-12-12T05:00:53.379Z,22.30
2022-12-12T05:03:31.718Z,22.87
2022-12-12T05:06:10.744Z,25.80
2022-12-12T05:08:44.124Z,26.57
2022-12-12T05:11:14.471Z,25.20
2022-12-12T05:13:45.212Z,23.53
2022-12-12T05:16:22.942Z,22.63
2022-12-12T05:18:51.903Z,22.47
2022-12-12T05:21:22.143Z,21.77
2022-12-12T05:23:51.010Z,25.13
2022-12-12T05:26:25.857Z,22.77
2022-12-12T05:29:03.679Z,22.27
2022-12-12T05:31:36.310Z,21.23
2022-12-12T05:34:06.348Z,21.13
2022-12-12T05:36:36.152Z,20.83
2022-12-12T05:39:05.210Z,24.07
2022-12-12T05:41:34.031Z,21.33
2022-12-12T05:44:04.673Z,21.53
2022-12-12T05:46:33.837Z,23.93
2022-12-12T05:49:02.630Z,23.27
2022-12-12T05:51:31.498Z,24.40
2022-12-12T05:54:00.309Z,25.10
2022-12-12T05:56:29.247Z,25.20
2022-12-12T05:58:58.031Z,24.30
2022-12-12T06:01:31.382Z,23.73
2022-12-12T06:04:00.148Z,24.27
2022-12-12T06:06:29.003Z,21.73
2022-12-12T06:08:58.016Z,24.63
2022-12-12T06:11:26.977Z,22.77
2022-12-12T06:13:55.819Z,31.73
2022-12-12T06:16:24.676Z,24.37
2022-12-12T06:18:56.998Z,24.40
2022-12-12T06:21:25.955Z,27.77
2022-12-12T06:23:58.239Z,26.10
2022-12-12T06:26:27.029Z,23.83
2022-12-12T06:28:57.226Z,22.03
2022-12-12T06:31:26.981Z,25.17
2022-12-12T06:33:59.336Z,23.43
2022-12-12T06:36:28.162Z,22.00
2022-12-12T06:39:01.693Z,23.07
2022-12-12T06:41:33.376Z,23.37
2022-12-12T06:44:02.163Z,22.10
2022-12-12T06:46:31.581Z,21.73
2022-12-12T06:49:03.124Z,22.87
2022-12-12T06:51:33.490Z,22.87
2022-12-12T06:54:02.226Z,23.93
2022-12-12T06:56:56.716Z,22.17
2022-12-12T06:59:25.532Z,21.53
2022-12-12T07:01:57.284Z,24.73
2022-12-12T07:04:27.772Z,22.30
2022-12-12T07:06:56.664Z,22.27
2022-12-12T07:09:25.554Z,24.80
2022-12-12T07:11:54.411Z,21.63
2022-12-12T07:14:23.126Z,24.33
2022-12-12T07:16:52.048Z,23.50
2022-12-12T07:19:20.872Z,19.67
2022-12-12T07:21:51.045Z,22.40
2022-12-12T07:24:19.787Z,20.07
2022-12-12T07:26:48.565Z,21.03
2022-12-12T07:29:17.332Z,20.13
2022-12-12T07:31:46.189Z,19.90
2022-12-12T07:34:17.147Z,20.63
2022-12-12T07:36:45.962Z,20.23
2022-12-12T07:39:20.607Z,20.63
2022-12-12T07:41:49.638Z,20.43
2022-12-12T07:44:23.015Z,19.63
2022-12-12T07:46:51.865Z,19.67
2022-12-12T07:49:20.699Z,19.57
2022-12-12T07:51:49.678Z,18.57
2022-12-12T07:54:19.882Z,21.03
2022-12-12T07:56:48.731Z,18.53
2022-12-12T07:59:17.523Z,19.70
2022-12-12T08:01:46.408Z,19.57
2022-12-12T08:04:15.207Z,16.63
2022-12-12T08:06:44.050Z,18.57
2022-12-12T08:09:12.805Z,19.37
2022-12-12T08:11:46.253Z,20.07
2022-12-12T08:14:16.234Z,20.33
2022-12-12T08:16:45.041Z,20.20
2022-12-12T08:19:13.924Z,22.97
2022-12-12T08:21:43.507Z,21.87
2022-12-12T08:24:16.325Z,21.20
2022-12-12T08:26:46.847Z,22.00
2022-12-12T08:29:15.611Z,17.53
2022-12-12T08:31:44.567Z,20.90
2022-12-12T08:34:14.022Z,19.97
2022-12-12T08:36:43.786Z,19.63
2022-12-12T08:39:16.267Z,21.27
2022-12-12T08:41:48.533Z,18.07
2022-12-12T08:44:19.214Z,19.17
2022-12-12T08:46:49.092Z,19.60
2022-12-12T08:49:18.461Z,20.07
2022-12-12T08:51:47.246Z,17.67
2022-12-12T08:54:16.159Z,19.43
2022-12-12T08:56:46.362Z,21.63
2022-12-12T08:59:15.479Z,20.40
2022-12-12T09:01:44.417Z,21.17
2022-12-12T09:04:13.272Z,19.57
2022-12-12T09:06:42.285Z,18.63
2022-12-12T09:09:11.205Z,21.27
2022-12-12T09:11:39.935Z,20.33
2022-12-12T09:14:10.934Z,18.17
2022-12-12T09:16:40.022Z,20.60
2022-12-12T09:19:08.791Z,20.87
2022-12-12T09:21:37.552Z,21.20
2022-12-12T09:24:06.857Z,19.13
2022-12-12T09:26:35.784Z,20.97
2022-12-12T09:29:06.124Z,20.93
2022-12-12T09:31:36.368Z,21.63
2022-12-12T09:34:05.193Z,26.07
2022-12-12T09:36:34.007Z,20.33
2022-12-12T09:39:02.777Z,19.30
2022-12-12T09:41:32.067Z,18.90
2022-12-12T09:44:04.937Z,19.53
2022-12-12T09:46:41.557Z,18.30
2022-12-12T09:49:18.459Z,19.63
2022-12-12T09:51:50.969Z,18.73
2022-12-12T09:54:23.878Z,19.50
2022-12-12T09:57:17.353Z,20.97
2022-12-12T09:59:54.897Z,18.70
2022-12-12T10:02:53.905Z,20.57
2022-12-12T10:05:35.931Z,19.13
2022-12-12T10:08:16.373Z,19.80
2022-12-12T10:10:49.460Z,20.60
2022-12-12T10:13:23.345Z,19.17
2022-12-12T10:15:58.553Z,21.03
2022-12-12T10:18:35.634Z,19.73
2022-12-12T10:21:15.031Z,19.67
2022-12-12T10:23:51.467Z,17.87
2022-12-12T10:31:36.777Z,19.87
2022-12-12T10:34:32.415Z,19.20
2022-12-12T10:37:18.565Z,20.03
2022-12-12T10:39:59.596Z,16.33
2022-12-12T10:42:38.477Z,19.10
2022-12-12T10:45:51.687Z,19.97
2022-12-12T10:51:30.925Z,20.77
2022-12-12T10:53:58.400Z,17.10
2022-12-12T10:56:29.039Z,18.53
2022-12-12T10:58:59.487Z,20.60
2022-12-12T11:02:08.271Z,21.23
2022-12-12T11:04:21.988Z,19.93
2022-12-12T11:06:54.278Z,19.67
2022-12-12T11:14:34.384Z,21.17
2022-12-12T11:17:02.659Z,20.73
2022-12-12T11:19:38.819Z,18.50
2022-12-12T11:22:06.553Z,21.40
2022-12-12T11:24:41.354Z,22.37
2022-12-12T11:27:21.028Z,22.50
2022-12-12T11:29:54.196Z,19.23
2022-12-12T11:32:28.165Z,21.77
2022-12-12T11:35:01.096Z,19.63
2022-12-12T11:37:46.479Z,21.23
2022-12-12T11:40:25.852Z,21.13
2022-12-12T11:43:17.604Z,21.20
2022-12-12T11:46:05.462Z,20.83
2022-12-12T11:48:43.983Z,21.77
2022-12-12T11:51:13.329Z,21.37
2022-12-12T11:53:46.365Z,21.30
2022-12-12T11:56:43.085Z,20.23
2022-12-12T11:59:43.775Z,20.90
2022-12-12T12:02:55.079Z,22.00
2022-12-12T12:05:33.344Z,19.63
2022-12-12T12:08:27.303Z,19.10
2022-12-12T12:11:14.917Z,20.43
2022-12-12T12:14:11.287Z,20.97
2022-12-12T12:16:54.099Z,19.73
2022-12-12T12:19:37.318Z,21.33
2022-12-12T12:22:19.989Z,20.27
2022-12-12T12:25:20.695Z,19.90
2022-12-12T12:28:05.901Z,21.50
2022-12-12T12:30:46.398Z,19.33
2022-12-12T12:33:39.904Z,20.17
2022-12-12T12:36:21.475Z,18.93
2022-12-12T12:39:14.247Z,20.17
2022-12-12T12:42:18.489Z,18.63
2022-12-12T12:44:56.514Z,19.60
2022-12-12T12:47:37.029Z,20.03
2022-12-12T12:50:18.879Z,21.50
2022-12-12T12:52:58.259Z,21.13
2022-12-12T12:55:36.604Z,18.07
2022-12-12T12:58:16.517Z,19.00
2022-12-12T13:00:45.453Z,17.47
2022-12-12T13:03:22.657Z,18.50
2022-12-12T13:05:56.765Z,17.40
2022-12-12T13:08:39.910Z,16.93
2022-12-12T13:11:16.059Z,19.40
2022-12-12T13:13:49.693Z,16.70
2022-12-12T13:16:23.870Z,20.53
2022-12-12T13:19:08.573Z,18.10
2022-12-12T13:21:47.851Z,17.30
2022-12-12T13:24:29.007Z,19.47
2022-12-12T13:27:07.425Z,18.80
2022-12-12T13:29:45.832Z,24.30
2022-12-12T13:33:06.693Z,30.00
2022-12-12T13:35:44.304Z,24.53
2022-12-12T13:38:23.368Z,22.93
2022-12-12T13:41:03.174Z,20.27
2022-12-12T13:43:45.898Z,20.33
2022-12-12T13:46:41.867Z,19.77
2022-12-12T13:49:31.564Z,20.70
2022-12-12T13:52:23.975Z,21.17
2022-12-12T13:54:57.351Z,17.53
2022-12-12T13:57:34.460Z,19.27
2022-12-12T14:00:21.387Z,20.83
2022-12-12T14:03:10.349Z,19.60
2022-12-12T14:05:42.435Z,17.80
2022-12-12T14:08:28.607Z,19.73
2022-12-12T14:11:04.641Z,19.40
2022-12-12T14:13:43.602Z,19.77
2022-12-12T14:16:28.221Z,16.20
2022-12-12T14:19:09.095Z,18.50
2022-12-12T14:21:56.164Z,18.50
2022-12-12T14:25:08.117Z,17.63
2022-12-12T14:28:17.848Z,17.50
2022-12-12T14:31:09.713Z,16.87
2022-12-12T14:34:06.508Z,15.43
2022-12-12T14:37:33.729Z,19.83
2022-12-12T14:40:14.500Z,18.57
2022-12-12T14:43:19.479Z,24.53
2022-12-12T14:45:58.369Z,18.03
2022-12-12T14:48:30.228Z,18.40
2022-12-12T14:51:09.420Z,17.07
2022-12-12T14:53:50.104Z,18.93
2022-12-12T14:56:23.063Z,17.60
2022-12-12T14:59:02.887Z,17.77
2022-12-12T15:01:37.423Z,17.70
2022-12-12T15:04:10.860Z,18.80
2022-12-12T15:06:41.554Z,18.00
2022-12-12T15:09:25.716Z,19.20
2022-12-12T15:11:57.301Z,17.93
2022-12-12T15:14:29.019Z,17.57
2022-12-12T15:17:06.922Z,18.40
2022-12-12T15:19:42.207Z,18.30
2022-12-12T15:22:17.405Z,20.83
2022-12-12T15:24:46.491Z,16.73
2022-12-12T15:27:24.712Z,19.97
2022-12-12T15:29:53.744Z,19.47
2022-12-12T15:32:26.841Z,20.57
2022-12-12T15:35:06.751Z,23.13
2022-12-12T15:37:38.569Z,19.27
2022-12-12T15:45:28.628Z,19.97
2022-12-12T15:47:56.840Z,20.37
2022-12-12T15:50:30.326Z,20.77
2022-12-12T15:56:00.570Z,20.73
2022-12-12T15:58:33.924Z,24.47
2022-12-12T16:01:08.334Z,22.53
2022-12-12T16:04:01.551Z,23.97
2022-12-12T16:06:33.508Z,22.50
2022-12-12T16:09:08.771Z,29.87
2022-12-12T16:11:51.203Z,28.03
2022-12-12T16:14:39.714Z,32.37
2022-12-12T16:17:14.386Z,22.90
2022-12-12T16:19:49.821Z,26.37
2022-12-12T16:22:36.343Z,24.60
2022-12-12T16:25:19.608Z,24.27
2022-12-12T16:27:57.832Z,26.93
2022-12-12T16:30:28.568Z,23.17
2022-12-12T16:32:57.733Z,26.47
2022-12-12T16:35:26.984Z,25.23
2022-12-12T16:37:58.116Z,25.43
2022-12-12T16:40:26.865Z,24.73
2022-12-12T16:43:09.403Z,24.60
2022-12-12T16:45:40.077Z,23.40
2022-12-12T16:48:16.764Z,25.00
2022-12-12T16:50:49.377Z,22.97
2022-12-12T16:53:25.689Z,23.77
2022-12-12T16:55:57.997Z,24.63
2022-12-12T16:58:28.550Z,24.33
2022-12-12T17:00:59.357Z,26.23
2022-12-12T17:03:28.588Z,25.50
2022-12-12T17:05:58.070Z,28.00
2022-12-12T17:08:27.910Z,26.03
2022-12-12T17:11:10.132Z,25.40
2022-12-12T17:13:48.249Z,27.63
2022-12-12T17:16:19.376Z,24.40
2022-12-12T17:18:51.768Z,27.60
2022-12-12T17:21:21.033Z,28.17
2022-12-12T17:23:50.482Z,38.10
2022-12-12T17:26:19.463Z,26.43
2022-12-12T17:28:49.727Z,39.63
2022-12-12T17:31:18.533Z,26.33
2022-12-12T17:33:50.930Z,24.83
2022-12-12T17:36:20.577Z,28.67
2022-12-12T17:38:50.014Z,26.47
2022-12-12T17:41:36.146Z,29.07
2022-12-12T17:44:06.880Z,26.10
2022-12-12T17:46:36.049Z,27.10
2022-12-12T17:49:05.262Z,24.10
2022-12-12T17:51:35.589Z,26.17
2022-12-12T17:54:06.678Z,27.53
2022-12-12T17:56:36.060Z,29.80
2022-12-12T17:59:10.197Z,28.90
2022-12-12T18:01:40.436Z,27.03
2022-12-12T18:04:09.912Z,28.77
2022-12-12T18:06:39.897Z,31.37
2022-12-12T18:09:08.822Z,29.03
2022-12-12T18:11:42.350Z,28.13
2022-12-12T18:14:18.652Z,31.47
2022-12-12T18:16:51.417Z,28.03
2022-12-12T18:19:21.149Z,29.03
2022-12-12T18:22:00.768Z,30.63
2022-12-12T18:24:39.734Z,31.27
2022-12-12T18:27:10.298Z,31.17
2022-12-12T18:29:43.232Z,32.07
2022-12-12T18:32:12.985Z,33.07
2022-12-12T18:34:43.971Z,31.03
2022-12-12T18:37:17.299Z,30.27
2022-12-12T18:39:46.588Z,32.83
2022-12-12T18:42:15.825Z,29.17
2022-12-12T18:44:46.275Z,31.07
2022-12-12T18:47:15.157Z,31.40
2022-12-12T18:49:43.935Z,32.77
2022-12-12T18:52:13.657Z,31.67
2022-12-12T18:54:42.434Z,32.33
2022-12-12T18:57:12.045Z,35.20
2022-12-12T18:59:41.479Z,32.07
2022-12-12T19:02:14.878Z,30.80
2022-12-12T19:04:44.872Z,34.10
2022-12-12T19:07:14.125Z,31.73
2022-12-12T19:09:46.887Z,35.37
2022-12-12T19:12:16.017Z,32.23
2022-12-12T19:15:15.359Z,31.13
2022-12-12T19:17:36.120Z,32.17
2022-12-12T19:20:06.016Z,30.83
2022-12-12T19:22:51.264Z,42.17
2022-12-12T19:25:24.080Z,40.53
2022-12-12T19:27:53.066Z,38.67
2022-12-12T19:30:22.275Z,40.53
2022-12-12T19:32:52.478Z,33.70
2022-12-12T19:35:21.778Z,32.80
2022-12-12T19:37:51.102Z,36.63
2022-12-12T19:40:20.159Z,33.33
2022-12-12T19:42:49.107Z,32.93
2022-12-12T19:45:18.151Z,37.27
2022-12-12T19:47:47.189Z,34.43
2022-12-12T19:50:17.761Z,30.43
2022-12-12T19:52:46.749Z,27.80
2022-12-12T19:55:16.592Z,27.00
2022-12-12T19:57:46.137Z,24.30
2022-12-12T20:00:19.924Z,30.77
2022-12-12T20:02:49.065Z,24.83
2022-12-12T20:05:19.770Z,23.60
2022-12-12T21:13:44.162Z,31.00
2022-12-12T21:16:14.436Z,28.40
2022-12-12T21:18:42.234Z,29.10
2022-12-12T21:21:12.910Z,27.30
2022-12-12T21:23:43.553Z,28.93
2022-12-12T21:26:20.508Z,28.67
2022-12-12T21:28:53.279Z,27.70
2022-12-12T21:31:24.845Z,29.60
2022-12-12T21:33:58.939Z,26.93
2022-12-12T21:36:30.100Z,25.67
2022-12-12T21:39:01.539Z,30.63
2022-12-12T21:41:30.729Z,29.97
2022-12-12T21:44:01.016Z,25.23
2022-12-12T21:46:31.177Z,28.40
2022-12-12T21:49:17.780Z,30.23
2022-12-12T21:51:47.563Z,27.00
2022-12-12T21:54:17.078Z,26.87
2022-12-12T21:56:46.698Z,26.67
2022-12-12T21:59:17.332Z,27.00
2022-12-12T22:01:46.376Z,27.50
2022-12-12T22:04:17.789Z,27.23
2022-12-12T22:06:47.436Z,29.13
2022-12-12T22:09:16.535Z,26.43
2022-12-12T22:11:49.972Z,25.70
2022-12-12T22:14:22.686Z,26.87
2022-12-12T22:16:51.616Z,25.93
2022-12-12T22:19:20.606Z,27.23
2022-12-12T22:21:50.048Z,25.00
2022-12-12T22:24:20.069Z,24.13
2022-12-12T22:26:50.885Z,29.10
2022-12-12T22:29:21.879Z,26.30
2022-12-12T22:31:52.386Z,25.80
2022-12-12T22:34:24.547Z,24.40
2022-12-12T22:36:55.189Z,25.17
2022-12-12T22:39:28.448Z,27.57
2022-12-12T22:41:57.920Z,29.57
2022-12-12T22:44:29.914Z,27.27
2022-12-12T22:46:59.279Z,25.63
2022-12-12T22:49:28.592Z,24.90
2022-12-12T22:51:59.397Z,26.83
2022-12-12T22:54:28.838Z,24.47
2022-12-12T22:56:57.761Z,27.30
2022-12-12T22:59:28.254Z,24.17
2022-12-12T23:01:57.069Z,24.50
2022-12-12T23:04:26.021Z,27.50
2022-12-12T23:06:55.024Z,23.43
2022-12-12T23:09:27.024Z,25.33
2022-12-12T23:11:56.447Z,24.73
2022-12-12T23:14:28.513Z,24.40
2022-12-12T23:16:57.454Z,22.97
2022-12-12T23:19:29.142Z,23.07
2022-12-12T23:21:58.653Z,23.53
2022-12-12T23:24:27.483Z,22.80
2022-12-12T23:26:56.393Z,22.73
2022-12-12T23:29:28.332Z,23.63
2022-12-12T23:31:58.769Z,20.33
2022-12-12T23:34:27.746Z,19.33
2022-12-12T23:36:57.383Z,18.73
2022-12-12T23:39:28.373Z,19.57
2022-12-12T23:41:57.782Z,19.27
2022-12-12T23:44:28.279Z,20.87
2022-12-12T23:46:58.322Z,22.27
2022-12-12T23:49:32.570Z,19.20
2022-12-12T23:52:02.696Z,24.13
2022-12-12T23:54:34.955Z,19.03
2022-12-12T23:57:04.851Z,24.40
2022-12-12T23:59:34.998Z,20.07
